Time;durP1;ratioP1;P1;durP2;ratioP2;P2;SDS_P1;SDS_P2;PMS_P1;PMS_P2;Temp;Humidity;BMP_temperature;BMP_pressure;BME280_temperature;BME280_humidity;BME280_pressure;Samples;Min_cycle;Max_cycle;Signal;HPM_P1;HPM_P2
2023/06/17 00:01:55;0.00;0.00;0.62;0.00;0.00;0.62;5.40;4.90;;;31.70;22.40;;;;;;2259945;61;20654;-61
2023/06/17 00:04:39;0.00;0.00;0.62;0.00;0.00;0.62;4.90;4.50;;;31.70;22.40;;;;;;2259507;61;20361;-61
2023/06/17 00:07:24;0.00;0.00;0.62;0.00;0.00;0.62;5.53;5.10;;;31.70;22.40;;;;;;2259421;61;20774;-62
2023/06/17 00:10:10;0.00;0.00;0.62;0.00;0.00;0.62;5.10;4.60;;;31.70;22.40;;;;;;2259683;61;20381;-61
2023/06/17 00:12:58;0.00;0.00;0.62;0.00;0.00;0.62;5.60;5.10;;;31.70;22.40;;;;;;2259743;61;20385;-65
2023/06/17 00:15:42;0.00;0.00;0.62;0.00;0.00;0.62;6.73;5.37;;;31.60;22.60;;;;;;2259797;61;20814;-61
2023/06/17 00:18:28;0.00;0.00;0.62;0.00;0.00;0.62;6.40;5.80;;;31.60;22.40;;;;;;2259553;61;20435;-62
2023/06/17 00:21:13;0.00;0.00;0.62;0.00;0.00;0.62;6.80;6.20;;;31.60;22.40;;;;;;2259852;61;20782;-62
2023/06/17 00:23:57;0.00;0.00;0.62;0.00;0.00;0.62;6.53;5.83;;;31.60;22.40;;;;;;2259764;61;20365;-62
2023/06/17 00:26:42;0.00;0.00;0.62;0.00;0.00;0.62;5.80;5.30;;;31.60;22.40;;;;;;2259600;61;20461;-62
2023/06/17 00:29:29;0.00;0.00;0.62;0.00;0.00;0.62;6.67;6.03;;;31.60;22.50;;;;;;2259052;61;20385;-62
2023/06/17 00:32:15;0.00;0.00;0.62;0.00;0.00;0.62;5.80;5.30;;;31.60;22.40;;;;;;2259756;61;20365;-62
2023/06/17 00:34:59;0.00;0.00;0.62;0.00;0.00;0.62;6.50;5.90;;;31.60;22.40;;;;;;2259903;61;20357;-62
2023/06/17 00:37:44;0.00;0.00;0.62;0.00;0.00;0.62;6.80;6.20;;;31.60;22.50;;;;;;2259442;61;20427;-62
2023/06/17 00:40:29;0.00;0.00;0.62;0.00;0.00;0.62;6.50;5.90;;;31.60;22.50;;;;;;2260444;61;20392;-62
2023/06/17 00:43:13;0.00;0.00;0.62;0.00;0.00;0.62;5.67;5.07;;;31.60;22.50;;;;;;2260350;61;20361;-60
2023/06/17 00:45:59;0.00;0.00;0.62;0.00;0.00;0.62;6.70;6.00;;;31.60;22.50;;;;;;2260082;61;20953;-63
2023/06/17 00:48:44;0.00;0.00;0.62;0.00;0.00;0.62;5.90;5.10;;;31.60;22.50;;;;;;2259833;61;20432;-62
2023/06/17 00:51:32;0.00;0.00;0.62;0.00;0.00;0.62;6.43;5.90;;;31.60;22.50;;;;;;2260510;61;20416;-62
2023/06/17 00:54:17;0.00;0.00;0.62;0.00;0.00;0.62;6.03;5.50;;;31.60;22.50;;;;;;2260139;61;20357;-61
2023/06/17 00:57:02;0.00;0.00;0.62;0.00;0.00;0.62;5.67;5.17;;;31.60;22.50;;;;;;2260308;61;20929;-56
2023/06/17 00:59:46;0.00;0.00;0.62;0.00;0.00;0.62;5.70;5.20;;;31.60;22.50;;;;;;2259716;61;20388;-60
2023/06/17 01:02:32;0.00;0.00;0.62;0.00;0.00;0.62;5.87;5.27;;;31.60;23.00;;;;;;2260149;61;20365;-61
2023/06/17 01:05:18;0.00;0.00;0.62;0.00;0.00;0.62;5.77;5.33;;;31.60;22.50;;;;;;2259972;61;20396;-61
2023/06/17 01:08:28;0.00;0.00;0.62;0.00;0.00;0.62;5.60;5.10;;;31.60;22.50;;;;;;2259939;61;20412;-62
2023/06/17 01:11:16;0.00;0.00;0.62;0.00;0.00;0.62;4.97;4.47;;;31.50;22.40;;;;;;2260252;61;20361;-58
2023/06/17 01:14:02;0.00;0.00;0.62;0.00;0.00;0.62;5.10;4.70;;;31.50;22.40;;;;;;2260716;61;20440;-62
2023/06/17 01:16:50;0.00;0.00;0.62;0.00;0.00;0.62;5.60;5.20;;;31.50;22.40;;;;;;2260425;61;20360;-63
2023/06/17 01:19:38;0.00;0.00;0.62;0.00;0.00;0.62;4.93;4.53;;;31.50;22.40;;;;;;2259756;61;20409;-62
2023/06/17 01:22:25;0.00;0.00;0.62;0.00;0.00;0.62;5.00;4.60;;;31.50;22.40;;;;;;2260421;61;20360;-60
2023/06/17 01:25:13;0.00;0.00;0.62;0.00;0.00;0.62;5.83;5.33;;;31.50;22.40;;;;;;2260833;61;20419;-59
2023/06/17 01:28:00;0.00;0.00;0.62;0.00;0.00;0.62;4.57;4.17;;;31.50;22.40;;;;;;2259795;61;20397;-62
2023/06/17 01:30:54;0.00;0.00;0.62;0.00;0.00;0.62;5.40;4.77;;;31.50;22.40;;;;;;2260304;61;20457;-62
2023/06/17 01:33:41;0.00;0.00;0.62;0.00;0.00;0.62;4.83;4.43;;;31.50;22.40;;;;;;2259732;61;21052;-61
2023/06/17 01:36:31;0.00;0.00;0.62;0.00;0.00;0.62;5.13;4.63;;;31.50;22.40;;;;;;2260194;61;20788;-62
2023/06/17 01:39:23;0.00;0.00;0.62;0.00;0.00;0.62;5.77;5.27;;;31.50;22.40;;;;;;2259505;61;20447;-60
2023/06/17 01:42:16;0.00;0.00;0.62;0.00;0.00;0.62;4.93;4.53;;;31.50;22.30;;;;;;2259628;61;20480;-60
2023/06/17 01:45:07;0.00;0.00;0.62;0.00;0.00;0.62;5.27;4.77;;;31.50;22.40;;;;;;2259942;61;20384;-63
2023/06/17 01:47:53;0.00;0.00;0.62;0.00;0.00;0.62;5.33;4.87;;;31.50;22.30;;;;;;2259690;61;20408;-64
2023/06/17 01:50:38;0.00;0.00;0.62;0.00;0.00;0.62;5.13;4.73;;;31.50;22.30;;;;;;2259573;61;20385;-61
2023/06/17 01:53:24;0.00;0.00;0.62;0.00;0.00;0.62;4.53;4.13;;;31.40;22.30;;;;;;2260418;61;20445;-63
2023/06/17 01:56:09;0.00;0.00;0.62;0.00;0.00;0.62;4.40;4.10;;;31.40;22.30;;;;;;2259563;61;20356;-68
2023/06/17 01:58:56;0.00;0.00;0.62;0.00;0.00;0.62;4.70;4.20;;;31.40;22.30;;;;;;2259356;61;20389;-62
2023/06/17 02:01:41;0.00;0.00;0.62;0.00;0.00;0.62;5.27;4.87;;;31.40;22.30;;;;;;2260253;61;20365;-63
2023/06/17 02:04:25;0.00;0.00;0.62;0.00;0.00;0.62;5.03;4.63;;;31.40;22.30;;;;;;2259594;61;20365;-64
2023/06/17 02:07:10;0.00;0.00;0.62;0.00;0.00;0.62;4.50;4.10;;;31.40;22.30;;;;;;2259727;61;20978;-61
2023/06/17 02:09:56;0.00;0.00;0.62;0.00;0.00;0.62;4.97;4.57;;;31.40;22.30;;;;;;2259400;61;20508;-62
2023/06/17 02:12:41;0.00;0.00;0.62;0.00;0.00;0.62;5.07;4.67;;;31.40;22.30;;;;;;2259875;61;20361;-60
2023/06/17 02:15:27;0.00;0.00;0.62;0.00;0.00;0.62;5.30;4.80;;;31.40;22.20;;;;;;2259838;61;20383;-62
2023/06/17 02:18:14;0.00;0.00;0.62;0.00;0.00;0.62;4.53;4.10;;;31.40;22.20;;;;;;2259527;61;20950;-62
2023/06/17 02:21:03;0.00;0.00;0.62;0.00;0.00;0.62;4.43;4.07;;;31.40;22.20;;;;;;2259595;61;20412;-61
2023/06/17 02:23:49;0.00;0.00;0.62;0.00;0.00;0.62;5.20;4.70;;;31.30;22.10;;;;;;2260399;61;20476;-62
2023/06/17 02:26:34;0.00;0.00;0.62;0.00;0.00;0.62;4.70;4.30;;;31.30;22.10;;;;;;2259950;61;20415;-59
2023/06/17 02:29:20;0.00;0.00;0.62;0.00;0.00;0.62;6.47;4.80;;;31.30;22.10;;;;;;2259701;61;20501;-61
2023/06/17 02:32:07;0.00;0.00;0.62;0.00;0.00;0.62;4.70;4.30;;;31.30;22.10;;;;;;2259786;61;20361;-63
2023/06/17 02:34:53;0.00;0.00;0.62;0.00;0.00;0.62;5.27;4.77;;;31.30;22.10;;;;;;2259855;61;21017;-62
2023/06/17 02:37:38;0.00;0.00;0.62;0.00;0.00;0.62;4.47;4.10;;;31.30;22.10;;;;;;2259690;61;20368;-61
2023/06/17 02:40:22;0.00;0.00;0.62;0.00;0.00;0.62;4.30;3.90;;;31.30;22.10;;;;;;2272843;48;20407;-61
2023/06/17 02:43:09;0.00;0.00;0.62;0.00;0.00;0.62;4.30;4.00;;;31.30;22.10;;;;;;2251696;61;20917;-62
2023/06/17 02:45:55;0.00;0.00;0.62;0.00;0.00;0.62;4.50;4.10;;;31.30;22.00;;;;;;2251835;61;20787;-59
2023/06/17 02:48:41;0.00;0.00;0.62;0.00;0.00;0.62;4.80;4.40;;;31.30;22.00;;;;;;2251116;61;20394;-61
2023/06/17 02:51:27;0.00;0.00;0.62;0.00;0.00;0.62;4.23;3.90;;;31.30;22.00;;;;;;2251664;61;20467;-61
2023/06/17 02:54:13;0.00;0.00;0.62;0.00;0.00;0.62;5.10;4.70;;;31.30;22.00;;;;;;2251823;61;20443;-61
2023/06/17 02:56:58;0.00;0.00;0.62;0.00;0.00;0.62;4.57;4.17;;;31.30;22.00;;;;;;2251744;61;20367;-60
2023/06/17 02:59:42;0.00;0.00;0.62;0.00;0.00;0.62;4.17;3.87;;;31.30;22.00;;;;;;2250930;61;20397;-61
2023/06/17 03:02:27;0.00;0.00;0.62;0.00;0.00;0.62;4.10;3.80;;;31.20;22.00;;;;;;2251422;61;20378;-61
2023/06/17 03:05:14;0.00;0.00;0.62;0.00;0.00;0.62;4.13;3.83;;;31.20;22.00;;;;;;2251923;61;20466;-62
2023/06/17 03:07:59;0.00;0.00;0.62;0.00;0.00;0.62;4.43;4.03;;;31.20;21.90;;;;;;2251467;61;20415;-59
2023/06/17 03:10:45;0.00;0.00;0.62;0.00;0.00;0.62;3.87;3.57;;;31.20;22.50;;;;;;2251643;61;20366;-61
2023/06/17 03:13:32;0.00;0.00;0.62;0.00;0.00;0.62;5.10;4.60;;;31.20;22.00;;;;;;2251429;61;20414;-61
2023/06/17 03:16:17;0.00;0.00;0.62;0.00;0.00;0.62;4.00;3.70;;;31.20;21.90;;;;;;2251812;61;20371;-61
2023/06/17 03:19:02;0.00;0.00;0.62;0.00;0.00;0.62;4.33;3.93;;;31.20;21.90;;;;;;2251256;61;20395;-65
2023/06/17 03:21:51;0.00;0.00;0.62;0.00;0.00;0.62;4.13;3.83;;;31.20;21.90;;;;;;2251577;61;20362;-61
2023/06/17 03:24:37;0.00;0.00;0.62;0.00;0.00;0.62;4.80;4.30;;;31.20;21.90;;;;;;2251570;61;20523;-60
2023/06/17 03:27:22;0.00;0.00;0.62;0.00;0.00;0.62;4.53;4.13;;;31.20;21.90;;;;;;2251342;61;20828;-61
2023/06/17 03:30:09;0.00;0.00;0.62;0.00;0.00;0.62;4.80;4.40;;;31.20;21.90;;;;;;2251631;61;20395;-61
2023/06/17 03:32:58;0.00;0.00;0.62;0.00;0.00;0.62;4.73;4.33;;;31.20;21.90;;;;;;2251476;61;20374;-61
2023/06/17 03:35:43;0.00;0.00;0.62;0.00;0.00;0.62;4.70;4.30;;;31.20;21.90;;;;;;2251486;61;20367;-61
2023/06/17 03:38:29;0.00;0.00;0.62;0.00;0.00;0.62;4.70;4.30;;;31.20;21.90;;;;;;2251334;61;20382;-60
2023/06/17 03:41:14;0.00;0.00;0.62;0.00;0.00;0.62;4.43;4.03;;;31.10;21.80;;;;;;2251261;61;20371;-61
2023/06/17 03:44:00;0.00;0.00;0.62;0.00;0.00;0.62;4.83;4.13;;;31.10;21.80;;;;;;2251612;61;20804;-61
2023/06/17 03:46:46;0.00;0.00;0.62;0.00;0.00;0.62;4.83;4.33;;;31.10;21.80;;;;;;2251269;61;20417;-61
2023/06/17 03:49:30;0.00;0.00;0.62;0.00;0.00;0.62;4.17;3.83;;;31.10;21.80;;;;;;2251350;61;20424;-62
2023/06/17 03:52:15;0.00;0.00;0.62;0.00;0.00;0.62;4.07;3.57;;;31.10;21.80;;;;;;2252053;61;20916;-61
2023/06/17 03:55:03;0.00;0.00;0.62;0.00;0.00;0.62;4.43;4.03;;;31.10;21.80;;;;;;2251695;61;20883;-62
2023/06/17 03:57:47;0.00;0.00;0.62;0.00;0.00;0.62;4.70;4.30;;;31.10;21.80;;;;;;2251458;61;20405;-61
2023/06/17 04:00:32;0.00;0.00;0.62;0.00;0.00;0.62;4.30;3.90;;;31.10;21.80;;;;;;2251219;61;20418;-61
2023/06/17 04:03:18;0.00;0.00;0.62;0.00;0.00;0.62;4.60;4.20;;;31.10;21.80;;;;;;2251139;61;20794;-61
2023/06/17 04:06:03;0.00;0.00;0.62;0.00;0.00;0.62;3.90;3.60;;;31.00;21.80;;;;;;2251599;61;20932;-61
2023/06/17 04:08:48;0.00;0.00;0.62;0.00;0.00;0.62;4.27;3.97;;;31.10;21.80;;;;;;2251297;61;20410;-61
2023/06/17 04:11:34;0.00;0.00;0.62;0.00;0.00;0.62;4.90;4.03;;;31.10;21.80;;;;;;2252814;61;20860;-63
2023/06/17 04:14:19;0.00;0.00;0.62;0.00;0.00;0.62;4.53;4.13;;;31.10;21.80;;;;;;2256109;61;20394;-62
2023/06/17 04:17:06;0.00;0.00;0.62;0.00;0.00;0.62;4.70;4.30;;;31.10;21.80;;;;;;2255388;61;20426;-63
2023/06/17 04:19:54;0.00;0.00;0.62;0.00;0.00;0.62;5.23;3.90;;;31.10;21.80;;;;;;2255856;61;20406;-64
2023/06/17 04:22:41;0.00;0.00;0.62;0.00;0.00;0.62;3.43;3.13;;;31.00;21.80;;;;;;2255881;61;20417;-62
2023/06/17 04:25:27;0.00;0.00;0.62;0.00;0.00;0.62;3.93;3.60;;;31.00;21.80;;;;;;2255445;61;20395;-62
2023/06/17 04:28:17;0.00;0.00;0.62;0.00;0.00;0.62;4.30;3.23;;;31.00;21.80;;;;;;2255197;61;20453;-61
2023/06/17 04:31:02;0.00;0.00;0.62;0.00;0.00;0.62;4.23;3.83;;;31.00;21.80;;;;;;2659897;45;20590;-62
2023/06/17 04:33:49;0.00;0.00;0.62;0.00;0.00;0.62;4.13;3.73;;;31.00;21.80;;;;;;2252076;61;20448;-62
2023/06/17 04:36:34;0.00;0.00;0.62;0.00;0.00;0.62;4.67;4.33;;;31.00;21.80;;;;;;2252285;61;20367;-62
2023/06/17 04:39:19;0.00;0.00;0.62;0.00;0.00;0.62;4.37;3.97;;;31.00;21.80;;;;;;2248326;61;20447;-61
2023/06/17 04:42:05;0.00;0.00;0.62;0.00;0.00;0.62;5.23;4.40;;;31.00;21.80;;;;;;2251701;61;20925;-62
2023/06/17 04:44:51;0.00;0.00;0.62;0.00;0.00;0.62;4.43;4.03;;;31.00;21.80;;;;;;2251562;61;20375;-62
2023/06/17 04:47:36;0.00;0.00;0.62;0.00;0.00;0.62;5.10;4.60;;;31.00;21.80;;;;;;2251344;61;20452;-62
2023/06/17 04:50:23;0.00;0.00;0.62;0.00;0.00;0.62;4.10;3.80;;;31.00;21.80;;;;;;2251534;61;20415;-62
2023/06/17 04:53:10;0.00;0.00;0.62;0.00;0.00;0.62;5.13;4.63;;;31.00;21.90;;;;;;2251674;61;20372;-61
2023/06/17 04:55:56;0.00;0.00;0.62;0.00;0.00;0.62;4.77;4.37;;;31.00;21.80;;;;;;2251777;61;20407;-62
2023/06/17 04:58:41;0.00;0.00;0.62;0.00;0.00;0.62;4.70;4.30;;;31.00;21.80;;;;;;2251572;61;20399;-62
2023/06/17 05:01:30;0.00;0.00;0.62;0.00;0.00;0.62;4.67;4.13;;;31.00;21.90;;;;;;2252160;61;20367;-61
2023/06/17 05:04:15;0.00;0.00;0.62;0.00;0.00;0.62;4.13;3.73;;;30.90;21.80;;;;;;2252084;61;20826;-61
2023/06/17 05:07:00;0.00;0.00;0.62;0.00;0.00;0.62;5.07;4.67;;;30.90;21.80;;;;;;2251872;61;20364;-61
2023/06/17 05:09:45;0.00;0.00;0.62;0.00;0.00;0.62;5.00;4.50;;;30.90;21.80;;;;;;2251185;61;20468;-62
2023/06/17 05:12:30;0.00;0.00;0.62;0.00;0.00;0.62;5.07;4.67;;;30.90;21.80;;;;;;2251589;61;20407;-62
2023/06/17 05:15:15;0.00;0.00;0.62;0.00;0.00;0.62;4.50;4.10;;;30.90;21.80;;;;;;2251195;61;20367;-62
2023/06/17 05:18:02;0.00;0.00;0.62;0.00;0.00;0.62;5.20;4.80;;;30.90;21.90;;;;;;2252815;61;20382;-61
2023/06/17 05:20:47;0.00;0.00;0.62;0.00;0.00;0.62;5.00;4.60;;;30.90;21.80;;;;;;2255589;61;20367;-62
2023/06/17 05:23:32;0.00;0.00;0.62;0.00;0.00;0.62;4.53;4.13;;;30.90;21.90;;;;;;2255116;61;20362;-61
2023/06/17 05:26:17;0.00;0.00;0.62;0.00;0.00;0.62;5.77;5.27;;;30.90;21.90;;;;;;2255646;61;20359;-62
2023/06/17 05:29:02;0.00;0.00;0.62;0.00;0.00;0.62;5.13;4.73;;;30.90;21.90;;;;;;2255626;61;20402;-62
2023/06/17 05:31:48;0.00;0.00;0.62;0.00;0.00;0.62;5.50;5.00;;;30.90;21.90;;;;;;2256029;61;20366;-62
2023/06/17 05:34:35;0.00;0.00;0.62;0.00;0.00;0.62;5.53;5.10;;;30.90;21.90;;;;;;2256079;61;20377;-67
2023/06/17 05:37:19;0.00;0.00;0.62;0.00;0.00;0.62;5.47;4.93;;;30.90;21.90;;;;;;2256530;61;20367;-62
2023/06/17 05:40:06;0.00;0.00;0.62;0.00;0.00;0.62;6.03;5.43;;;30.90;21.90;;;;;;2255684;61;20976;-62
2023/06/17 05:42:52;0.00;0.00;0.62;0.00;0.00;0.62;5.57;5.07;;;30.90;21.90;;;;;;2256166;61;20451;-61
2023/06/17 05:45:39;0.00;0.00;0.62;0.00;0.00;0.62;5.90;5.40;;;30.90;22.00;;;;;;2256121;61;20366;-63
2023/06/17 05:48:28;0.00;0.00;0.62;0.00;0.00;0.62;5.37;4.97;;;30.90;22.00;;;;;;2265057;48;20811;31
2023/06/17 05:51:16;0.00;0.00;0.62;0.00;0.00;0.62;6.77;6.10;;;30.90;22.00;;;;;;2249975;61;20384;-62
2023/06/17 05:54:02;0.00;0.00;0.62;0.00;0.00;0.62;6.50;5.90;;;30.90;22.00;;;;;;2247854;61;20416;-62
2023/06/17 05:56:47;0.00;0.00;0.62;0.00;0.00;0.62;6.87;6.27;;;30.90;22.00;;;;;;2245006;61;20376;-61
2023/06/17 05:59:32;0.00;0.00;0.62;0.00;0.00;0.62;6.47;5.87;;;30.90;22.00;;;;;;2245415;61;20454;-59
2023/06/17 06:02:17;0.00;0.00;0.62;0.00;0.00;0.62;6.63;6.03;;;30.90;22.00;;;;;;2247868;61;20371;-62
2023/06/17 06:05:03;0.00;0.00;0.62;0.00;0.00;0.62;8.40;6.13;;;30.90;22.00;;;;;;2247772;61;20452;-60
2023/06/17 06:07:49;0.00;0.00;0.62;0.00;0.00;0.62;6.23;5.73;;;30.80;22.00;;;;;;2247987;61;20372;-62
2023/06/17 06:10:34;0.00;0.00;0.62;0.00;0.00;0.62;7.00;6.00;;;30.80;22.00;;;;;;2247456;61;20380;-62
2023/06/17 06:13:20;0.00;0.00;0.62;0.00;0.00;0.62;7.80;7.10;;;30.80;22.50;;;;;;2247820;61;20452;-61
2023/06/17 06:16:05;0.00;0.00;0.62;0.00;0.00;0.62;6.53;5.93;;;30.80;22.00;;;;;;2247526;61;20426;-59
2023/06/17 06:18:50;0.00;0.00;0.62;0.00;0.00;0.62;6.90;6.30;;;30.80;22.00;;;;;;2247301;61;20390;-62
2023/06/17 06:21:35;0.00;0.00;0.62;0.00;0.00;0.62;7.23;6.63;;;30.80;22.10;;;;;;2247895;61;20396;-59
2023/06/17 06:24:21;0.00;0.00;0.62;0.00;0.00;0.62;7.27;6.63;;;30.80;22.10;;;;;;2248400;61;20360;-62
2023/06/17 06:27:06;0.00;0.00;0.62;0.00;0.00;0.62;7.50;6.80;;;30.80;22.10;;;;;;2248242;61;20820;-60
2023/06/17 06:29:51;0.00;0.00;0.62;0.00;0.00;0.62;7.57;6.60;;;30.80;22.10;;;;;;2245714;61;20416;-63
2023/06/17 06:32:36;0.00;0.00;0.62;0.00;0.00;0.62;6.10;5.60;;;30.80;22.10;;;;;;2243755;61;20468;-59
2023/06/17 06:35:22;0.00;0.00;0.62;0.00;0.00;0.62;7.90;7.20;;;30.80;22.10;;;;;;2243892;61;20399;-66
2023/06/17 06:38:08;0.00;0.00;0.62;0.00;0.00;0.62;7.23;6.53;;;30.80;22.20;;;;;;2240755;61;20364;-63
2023/06/17 06:40:55;0.00;0.00;0.62;0.00;0.00;0.62;6.83;6.23;;;30.80;22.10;;;;;;2243664;61;20424;-61
2023/06/17 06:43:40;0.00;0.00;0.62;0.00;0.00;0.62;7.83;7.13;;;30.80;22.10;;;;;;2243468;61;20513;-60
2023/06/17 06:46:33;0.00;0.00;0.62;0.00;0.00;0.62;7.63;6.90;;;30.80;22.20;;;;;;2244017;61;20420;-61
2023/06/17 06:49:18;0.00;0.00;0.62;0.00;0.00;0.62;7.40;6.80;;;30.80;22.20;;;;;;2243660;61;20810;-59
2023/06/17 06:52:04;0.00;0.00;0.62;0.00;0.00;0.62;7.37;6.67;;;30.80;22.20;;;;;;2243501;61;20373;-61
2023/06/17 06:54:48;0.00;0.00;0.62;0.00;0.00;0.62;8.63;7.83;;;30.80;22.20;;;;;;2243628;61;20377;-61
2023/06/17 06:57:35;0.00;0.00;0.62;0.00;0.00;0.62;9.07;8.17;;;30.80;22.20;;;;;;2243939;61;20424;-62
2023/06/17 07:00:20;0.00;0.00;0.62;0.00;0.00;0.62;6.53;5.93;;;30.80;22.20;;;;;;2243660;61;20455;-61
2023/06/17 07:03:07;0.00;0.00;0.62;0.00;0.00;0.62;7.10;6.50;;;30.80;22.20;;;;;;2243669;61;20368;-61
2023/06/17 07:05:51;0.00;0.00;0.62;0.00;0.00;0.62;7.43;6.73;;;30.80;22.20;;;;;;2246292;61;20372;-62
2023/06/17 07:08:36;0.00;0.00;0.62;0.00;0.00;0.62;7.17;6.57;;;30.80;22.20;;;;;;2245977;61;20408;-59
2023/06/17 07:11:21;0.00;0.00;0.62;0.00;0.00;0.62;5.70;5.20;;;30.80;22.30;;;;;;2243884;61;20456;-60
2023/06/17 07:14:08;0.00;0.00;0.62;0.00;0.00;0.62;7.40;6.30;;;30.80;22.20;;;;;;2243896;61;20364;-62
2023/06/17 07:16:53;0.00;0.00;0.62;0.00;0.00;0.62;6.87;6.20;;;30.80;22.30;;;;;;2243515;61;20388;-58
2023/06/17 07:19:38;0.00;0.00;0.62;0.00;0.00;0.62;7.50;6.80;;;30.80;22.30;;;;;;2243030;61;20399;-60
2023/06/17 07:22:24;0.00;0.00;0.62;0.00;0.00;0.62;6.90;6.20;;;30.80;22.30;;;;;;2243295;61;20368;-61
2023/06/17 07:25:09;0.00;0.00;0.62;0.00;0.00;0.62;8.20;7.50;;;30.80;22.30;;;;;;2243571;61;20369;-61
2023/06/17 07:27:56;0.00;0.00;0.62;0.00;0.00;0.62;6.93;6.23;;;30.80;22.30;;;;;;2243605;61;20901;-59
2023/06/17 07:30:44;0.00;0.00;0.62;0.00;0.00;0.62;7.10;6.40;;;30.80;22.30;;;;;;2247526;61;20419;-61
2023/06/17 07:33:30;0.00;0.00;0.62;0.00;0.00;0.62;7.50;6.80;;;30.70;22.30;;;;;;2247477;61;20434;-61
2023/06/17 07:36:14;0.00;0.00;0.62;0.00;0.00;0.62;7.67;6.97;;;30.70;22.30;;;;;;2248145;61;20472;-59
2023/06/17 07:39:00;0.00;0.00;0.62;0.00;0.00;0.62;7.20;6.53;;;30.80;22.40;;;;;;2246992;61;20419;-61
2023/06/17 07:41:45;0.00;0.00;0.62;0.00;0.00;0.62;7.63;6.93;;;30.70;22.30;;;;;;2247643;61;20392;-59
2023/06/17 07:44:31;0.00;0.00;0.62;0.00;0.00;0.62;7.00;6.30;;;30.70;22.30;;;;;;2247803;61;20359;-61
2023/06/17 07:47:18;0.00;0.00;0.62;0.00;0.00;0.62;6.73;6.13;;;30.70;22.40;;;;;;2248177;61;20780;-60
2023/06/17 07:50:04;0.00;0.00;0.62;0.00;0.00;0.62;7.83;7.10;;;30.70;22.30;;;;;;2247886;61;20380;-59
2023/06/17 07:52:50;0.00;0.00;0.62;0.00;0.00;0.62;7.20;6.60;;;30.70;22.30;;;;;;2248061;61;20399;-61
2023/06/17 07:55:35;0.00;0.00;0.62;0.00;0.00;0.62;7.17;6.50;;;30.70;22.30;;;;;;2247731;61;20785;-60
2023/06/17 07:58:20;0.00;0.00;0.62;0.00;0.00;0.62;7.20;6.50;;;30.70;22.30;;;;;;2247202;61;20949;-62
2023/06/17 08:01:05;0.00;0.00;0.62;0.00;0.00;0.62;7.20;6.50;;;30.70;22.30;;;;;;2247919;61;20375;-61
2023/06/17 08:03:51;0.00;0.00;0.62;0.00;0.00;0.62;6.73;6.13;;;30.70;22.40;;;;;;2247958;61;20363;-61
2023/06/17 08:06:37;0.00;0.00;0.62;0.00;0.00;0.62;7.40;6.70;;;30.70;22.40;;;;;;2247636;61;20391;-61
2023/06/17 08:09:22;0.00;0.00;0.62;0.00;0.00;0.62;7.17;6.57;;;30.70;22.40;;;;;;2247235;61;20384;-61
2023/06/17 08:12:08;0.00;0.00;0.62;0.00;0.00;0.62;7.03;6.43;;;30.70;22.40;;;;;;2247863;61;21001;-61
2023/06/17 08:14:53;0.00;0.00;0.62;0.00;0.00;0.62;7.33;6.63;;;30.70;22.40;;;;;;2248017;61;20383;-61
2023/06/17 08:17:37;0.00;0.00;0.62;0.00;0.00;0.62;8.20;7.40;;;30.70;22.40;;;;;;2476544;53;20360;-64
2023/06/17 08:20:23;0.00;0.00;0.62;0.00;0.00;0.62;7.67;6.97;;;30.70;22.40;;;;;;2243366;61;20439;-61
2023/06/17 08:23:08;0.00;0.00;0.62;0.00;0.00;0.62;6.80;6.30;;;30.70;22.40;;;;;;2244012;61;20384;-60
2023/06/17 08:25:53;0.00;0.00;0.62;0.00;0.00;0.62;7.73;7.03;;;30.70;22.40;;;;;;2243859;61;20400;-61
2023/06/17 08:28:38;0.00;0.00;0.62;0.00;0.00;0.62;6.90;6.30;;;30.70;22.40;;;;;;2243459;61;20360;-60
2023/06/17 08:31:26;0.00;0.00;0.62;0.00;0.00;0.62;7.33;6.67;;;30.70;22.40;;;;;;2247694;61;20411;-61
2023/06/17 08:34:12;0.00;0.00;0.62;0.00;0.00;0.62;8.30;7.50;;;30.80;22.50;;;;;;2247906;61;20386;-59
2023/06/17 08:37:04;0.00;0.00;0.62;0.00;0.00;0.62;7.57;6.90;;;30.80;22.50;;;;;;2247982;61;20842;-65
2023/06/17 08:39:48;0.00;0.00;0.62;0.00;0.00;0.62;8.57;6.77;;;30.70;22.40;;;;;;2247268;61;20383;-60
2023/06/17 08:42:33;0.00;0.00;0.62;0.00;0.00;0.62;8.53;7.30;;;30.80;22.40;;;;;;2247689;61;20359;-60
2023/06/17 08:45:19;0.00;0.00;0.62;0.00;0.00;0.62;7.90;7.10;;;30.70;22.40;;;;;;2248052;61;20480;-61
2023/06/17 08:48:06;0.00;0.00;0.62;0.00;0.00;0.62;7.53;6.83;;;30.80;22.50;;;;;;2247899;61;20845;-61
2023/06/17 08:50:52;0.00;0.00;0.62;0.00;0.00;0.62;7.57;6.87;;;30.80;22.50;;;;;;2247747;61;20364;-62
2023/06/17 08:53:40;0.00;0.00;0.62;0.00;0.00;0.62;8.13;7.43;;;30.80;22.50;;;;;;2247713;61;20781;-61
2023/06/17 08:56:24;0.00;0.00;0.62;0.00;0.00;0.62;7.63;6.93;;;30.80;22.50;;;;;;2247784;61;20410;-62
2023/06/17 08:59:09;0.00;0.00;0.62;0.00;0.00;0.62;6.80;6.20;;;30.80;23.00;;;;;;2246667;61;20434;-62
2023/06/17 09:01:54;0.00;0.00;0.62;0.00;0.00;0.62;7.50;6.80;;;30.80;22.40;;;;;;2248354;61;20359;-61
2023/06/17 09:04:40;0.00;0.00;0.62;0.00;0.00;0.62;6.13;5.63;;;30.80;22.40;;;;;;2248387;61;20998;-61
2023/06/17 09:07:25;0.00;0.00;0.62;0.00;0.00;0.62;6.50;6.00;;;30.80;22.40;;;;;;2248330;61;20368;-61
2023/06/17 09:10:15;0.00;0.00;0.62;0.00;0.00;0.62;7.10;6.50;;;30.80;22.50;;;;;;2248400;61;20407;-61
2023/06/17 09:13:00;0.00;0.00;0.62;0.00;0.00;0.62;7.00;6.40;;;30.70;22.40;;;;;;2248301;61;20795;-61
2023/06/17 09:15:45;0.00;0.00;0.62;0.00;0.00;0.62;6.63;6.10;;;30.80;22.40;;;;;;2248470;61;20410;-61
2023/06/17 09:18:32;0.00;0.00;0.62;0.00;0.00;0.62;7.57;6.90;;;30.80;22.40;;;;;;2248275;61;20403;-61
2023/06/17 09:21:17;0.00;0.00;0.62;0.00;0.00;0.62;7.60;6.90;;;30.80;22.40;;;;;;2248346;61;20491;-61
2023/06/17 09:24:05;0.00;0.00;0.62;0.00;0.00;0.62;6.83;6.23;;;30.80;22.40;;;;;;2248209;61;20360;-59
2023/06/17 09:26:51;0.00;0.00;0.62;0.00;0.00;0.62;7.70;6.90;;;30.80;22.40;;;;;;2248251;61;20778;-61
2023/06/17 09:29:36;0.00;0.00;0.62;0.00;0.00;0.62;7.70;7.00;;;30.80;22.40;;;;;;2247885;61;20396;-61
2023/06/17 09:32:21;0.00;0.00;0.62;0.00;0.00;0.62;7.30;6.70;;;30.80;22.50;;;;;;2248328;61;20407;-61
2023/06/17 09:35:11;0.00;0.00;0.62;0.00;0.00;0.62;7.90;7.20;;;30.80;22.50;;;;;;2248032;61;20363;-61
2023/06/17 09:37:56;0.00;0.00;0.62;0.00;0.00;0.62;7.53;6.73;;;30.80;22.50;;;;;;2248577;61;20384;-60
2023/06/17 09:40:41;0.00;0.00;0.62;0.00;0.00;0.62;7.83;7.07;;;30.80;22.50;;;;;;2248096;61;20796;-62
2023/06/17 09:43:27;0.00;0.00;0.62;0.00;0.00;0.62;7.07;6.47;;;30.80;22.50;;;;;;2248286;61;20372;-62
2023/06/17 09:46:13;0.00;0.00;0.62;0.00;0.00;0.62;7.90;7.20;;;30.80;22.50;;;;;;2248332;61;20403;-62
2023/06/17 09:48:58;0.00;0.00;0.62;0.00;0.00;0.62;7.50;6.90;;;30.80;22.50;;;;;;2247458;61;20790;-62
2023/06/17 09:51:43;0.00;0.00;0.62;0.00;0.00;0.62;8.00;7.30;;;30.80;22.50;;;;;;2248554;61;20387;-62
2023/06/17 09:54:29;0.00;0.00;0.62;0.00;0.00;0.62;7.40;6.80;;;30.80;22.50;;;;;;2248286;61;20364;-62
2023/06/17 09:57:16;0.00;0.00;0.62;0.00;0.00;0.62;7.13;6.53;;;30.80;22.50;;;;;;2248089;61;20363;-60
2023/06/17 10:00:10;0.00;0.00;0.62;0.00;0.00;0.62;8.30;7.60;;;30.80;22.50;;;;;;2247694;61;20450;-62
2023/06/17 10:02:55;0.00;0.00;0.62;0.00;0.00;0.62;7.50;6.80;;;30.90;22.60;;;;;;2248302;61;20448;-62
2023/06/17 10:05:40;0.00;0.00;0.62;0.00;0.00;0.62;7.13;6.63;;;30.90;22.50;;;;;;2248188;61;20455;-62
2023/06/17 10:08:26;0.00;0.00;0.62;0.00;0.00;0.62;7.57;6.97;;;30.80;22.50;;;;;;2247788;61;20777;-64
2023/06/17 10:11:14;0.00;0.00;0.62;0.00;0.00;0.62;7.57;6.97;;;30.90;22.60;;;;;;2248113;61;20902;-63
2023/06/17 10:14:03;0.00;0.00;0.62;0.00;0.00;0.62;8.03;7.37;;;30.90;22.60;;;;;;2248395;61;20363;-63
2023/06/17 10:16:50;0.00;0.00;0.62;0.00;0.00;0.62;7.80;7.17;;;30.90;22.60;;;;;;2248351;61;20443;-66
2023/06/17 10:19:39;0.00;0.00;0.62;0.00;0.00;0.62;7.70;6.90;;;30.90;22.60;;;;;;2247463;61;20438;-62
2023/06/17 10:22:26;0.00;0.00;0.62;0.00;0.00;0.62;8.00;7.30;;;30.90;22.60;;;;;;2247967;61;20399;-64
2023/06/17 10:25:14;0.00;0.00;0.62;0.00;0.00;0.62;6.90;6.40;;;30.90;22.60;;;;;;2248270;61;20363;-64
2023/06/17 10:28:02;0.00;0.00;0.62;0.00;0.00;0.62;7.73;6.97;;;30.90;22.60;;;;;;2247774;61;20363;-62
2023/06/17 10:30:51;0.00;0.00;0.62;0.00;0.00;0.62;7.27;6.67;;;30.90;22.60;;;;;;2247964;61;20367;-63
2023/06/17 10:33:47;0.00;0.00;0.62;0.00;0.00;0.62;6.83;6.30;;;30.90;22.60;;;;;;2248145;61;21007;-63
2023/06/17 10:36:36;0.00;0.00;0.62;0.00;0.00;0.62;7.33;6.73;;;30.90;22.60;;;;;;2248379;61;20372;-62
2023/06/17 10:39:21;0.00;0.00;0.62;0.00;0.00;0.62;7.10;6.50;;;30.90;22.60;;;;;;2247774;61;20394;-63
2023/06/17 10:42:13;0.00;0.00;0.62;0.00;0.00;0.62;7.87;7.17;;;30.90;22.60;;;;;;2248056;61;20925;-64
2023/06/17 10:44:57;0.00;0.00;0.62;0.00;0.00;0.62;7.70;7.10;;;30.90;22.60;;;;;;2248030;61;20680;-64
2023/06/17 10:47:42;0.00;0.00;0.62;0.00;0.00;0.62;6.80;6.30;;;30.90;22.60;;;;;;2248398;61;20387;-64
2023/06/17 10:50:28;0.00;0.00;0.62;0.00;0.00;0.62;6.83;6.23;;;30.90;22.60;;;;;;2247713;61;20380;-64
2023/06/17 10:53:15;0.00;0.00;0.62;0.00;0.00;0.62;6.90;6.30;;;30.90;22.60;;;;;;2247930;61;20878;-64
2023/06/17 10:56:01;0.00;0.00;0.62;0.00;0.00;0.62;7.47;6.80;;;30.90;22.60;;;;;;2248057;61;20403;-64